Time;durP1;ratioP1;P1;durP2;ratioP2;P2;SDS_P1;SDS_P2;PMS_P1;PMS_P2;Temp;Humidity;BMP_temperature;BMP_pressure;BME280_temperature;BME280_humidity;BME280_pressure;Samples;Min_cycle;Max_cycle;Signal;HPM_P1;HPM_P2
2023/06/30 00:01:12;;;;;;;9.27;8.57;;;;;;;;;;5074435;28;20539;-57
2023/06/30 00:03:39;;;;;;;7.77;7.37;;;;;;;;;;5074316;28;20491;-57
2023/06/30 00:06:06;;;;;;;7.47;7.07;;;;;;;;;;5074031;28;21030;-57
2023/06/30 00:08:33;;;;;;;8.97;8.37;;;;;;;;;;5074063;28;20483;-57
2023/06/30 00:11:00;;;;;;;8.67;8.00;;;;;;;;;;5074012;28;20487;-58
2023/06/30 00:13:27;;;;;;;8.90;8.30;;;;;;;;;;5073876;28;20538;-58
2023/06/30 00:15:55;;;;;;;8.80;8.03;;;;;;;;;;5073786;28;20546;-57
2023/06/30 00:18:22;;;;;;;9.60;9.00;;;;;;;;;;5073991;28;20484;-58
2023/06/30 00:20:49;;;;;;;9.60;8.60;;;;;;;;;;5073912;28;20539;-58
2023/06/30 00:23:17;;;;;;;8.87;8.27;;;;;;;;;;5073794;28;20443;-57
2023/06/30 00:25:44;;;;;;;8.80;8.20;;;;;;;;;;5073716;28;20451;-58
2023/06/30 00:28:11;;;;;;;8.20;7.60;;;;;;;;;;5073541;28;20552;-57
2023/06/30 00:30:38;;;;;;;8.30;7.80;;;;;;;;;;5073900;28;20543;-57
2023/06/30 00:33:06;;;;;;;7.20;6.70;;;;;;;;;;5073694;28;20462;-57
2023/06/30 00:35:33;;;;;;;7.67;7.17;;;;;;;;;;5073643;28;20483;-57
2023/06/30 00:38:00;;;;;;;7.80;7.27;;;;;;;;;;5073547;28;20443;-58
2023/06/30 00:40:27;;;;;;;7.60;7.13;;;;;;;;;;5073504;28;20479;-58
2023/06/30 00:42:54;;;;;;;7.70;7.20;;;;;;;;;;5073372;28;20864;-57
2023/06/30 00:45:21;;;;;;;7.50;6.90;;;;;;;;;;5073596;28;20885;-57
2023/06/30 00:47:48;;;;;;;7.43;6.83;;;;;;;;;;5073421;28;20482;-58
2023/06/30 00:50:17;;;;;;;7.17;6.67;;;;;;;;;;5073327;28;20452;-57
2023/06/30 00:52:47;;;;;;;8.07;7.27;;;;;;;;;;5073279;28;20448;-57
2023/06/30 00:55:15;;;;;;;7.30;6.83;;;;;;;;;;5072910;28;20974;-57
2023/06/30 00:57:43;;;;;;;7.10;6.70;;;;;;;;;;5073399;28;20847;-57
2023/06/30 01:00:11;;;;;;;8.03;7.40;;;;;;;;;;5073081;28;20554;-57
2023/06/30 01:02:43;;;;;;;6.70;6.27;;;;;;;;;;5073204;28;20452;-57
2023/06/30 01:05:12;;;;;;;6.83;6.43;;;;;;;;;;5073304;28;20448;-57
2023/06/30 01:07:44;;;;;;;9.13;5.90;;;;;;;;;;5072910;28;21010;-58
2023/06/30 01:10:13;;;;;;;7.17;6.40;;;;;;;;;;5073087;28;20448;-57
2023/06/30 01:12:41;;;;;;;8.10;7.30;;;;;;;;;;5073147;28;20539;-57
2023/06/30 01:15:08;;;;;;;6.50;6.00;;;;;;;;;;5073087;28;20565;-57
2023/06/30 01:17:40;;;;;;;7.60;6.80;;;;;;;;;;5072996;28;20456;-58
2023/06/30 01:20:10;;;;;;;9.93;8.00;;;;;;;;;;5072799;28;20958;-57
2023/06/30 01:22:44;;;;;;;9.50;8.57;;;;;;;;;;5073278;28;20460;-57
2023/06/30 01:25:14;;;;;;;9.07;8.07;;;;;;;;;;5073060;28;20579;-58
2023/06/30 01:27:42;;;;;;;9.37;8.47;;;;;;;;;;5072861;28;20451;-57
2023/06/30 01:30:09;;;;;;;9.47;8.47;;;;;;;;;;5072807;28;20462;-57
2023/06/30 01:32:36;;;;;;;14.00;11.10;;;;;;;;;;5072665;28;20487;-57
2023/06/30 01:35:03;;;;;;;12.80;10.10;;;;;;;;;;5073238;28;20508;-57
2023/06/30 01:37:30;;;;;;;13.03;11.30;;;;;;;;;;5072928;28;20486;-57
2023/06/30 01:39:57;;;;;;;13.37;11.80;;;;;;;;;;5072780;28;20947;-57
2023/06/30 01:42:26;;;;;;;13.37;11.97;;;;;;;;;;5072844;28;20546;-57
2023/06/30 01:44:53;;;;;;;15.30;11.70;;;;;;;;;;5072644;28;20546;-57
2023/06/30 01:47:20;;;;;;;13.63;12.17;;;;;;;;;;5072530;28;20458;-57
2023/06/30 01:49:48;;;;;;;12.53;10.87;;;;;;;;;;5072634;28;20570;-57
2023/06/30 01:52:15;;;;;;;14.20;11.40;;;;;;;;;;5072580;28;20482;-57
2023/06/30 01:54:42;;;;;;;15.00;10.80;;;;;;;;;;5072726;28;20867;-58
2023/06/30 01:57:09;;;;;;;16.80;11.63;;;;;;;;;;5072363;28;20567;-58
2023/06/30 01:59:37;;;;;;;15.73;12.20;;;;;;;;;;5072538;28;20456;-57
2023/06/30 02:02:04;;;;;;;13.77;11.83;;;;;;;;;;5072493;28;20483;-55
2023/06/30 02:04:31;;;;;;;12.50;11.20;;;;;;;;;;5072812;28;20447;-57
2023/06/30 02:06:58;;;;;;;14.27;11.30;;;;;;;;;;5072860;28;20534;-58
2023/06/30 02:09:25;;;;;;;13.27;11.67;;;;;;;;;;5072521;28;20529;-57
2023/06/30 02:11:52;;;;;;;14.50;11.63;;;;;;;;;;5075076;28;20542;-57
2023/06/30 02:14:19;;;;;;;16.40;12.80;;;;;;;;;;5076296;28;20552;-57
2023/06/30 02:16:47;;;;;;;13.90;11.60;;;;;;;;;;5076391;28;20858;-58
2023/06/30 02:19:14;;;;;;;13.30;11.60;;;;;;;;;;5076407;28;20547;-57
2023/06/30 02:21:42;;;;;;;15.47;12.43;;;;;;;;;;5076166;28;20447;-57
2023/06/30 02:24:09;;;;;;;14.07;12.60;;;;;;;;;;5076209;28;20456;-57
2023/06/30 02:26:36;;;;;;;17.00;13.03;;;;;;;;;;5076124;28;20452;-58
2023/06/30 02:29:03;;;;;;;16.10;13.37;;;;;;;;;;5075902;28;20479;-57
2023/06/30 02:31:30;;;;;;;13.20;11.53;;;;;;;;;;5076106;28;20486;-58
2023/06/30 02:33:58;;;;;;;13.70;11.77;;;;;;;;;;5076055;28;20542;-57
2023/06/30 02:36:25;;;;;;;12.40;10.70;;;;;;;;;;5076020;28;20451;-58
2023/06/30 02:38:52;;;;;;;13.50;11.60;;;;;;;;;;5076032;28;21031;-58
2023/06/30 02:41:19;;;;;;;13.63;12.13;;;;;;;;;;5075795;28;21006;-57
2023/06/30 02:43:46;;;;;;;12.90;11.60;;;;;;;;;;5075656;28;20880;-57
2023/06/30 02:46:13;;;;;;;16.80;12.37;;;;;;;;;;5075836;28;20480;-58
2023/06/30 02:48:40;;;;;;;14.83;11.90;;;;;;;;;;5075700;28;20471;-58
2023/06/30 02:51:08;;;;;;;13.27;11.90;;;;;;;;;;5075611;28;20486;-58
2023/06/30 02:53:35;;;;;;;13.33;11.90;;;;;;;;;;5075587;28;20448;-57
2023/06/30 02:56:02;;;;;;;15.73;12.33;;;;;;;;;;5075276;28;20562;-58
2023/06/30 02:58:29;;;;;;;14.20;12.80;;;;;;;;;;5075645;28;20451;-58
2023/06/30 03:00:56;;;;;;;13.30;11.90;;;;;;;;;;5075566;28;20480;-57
2023/06/30 03:03:23;;;;;;;13.63;11.77;;;;;;;;;;5075461;28;20543;-58
2023/06/30 03:05:50;;;;;;;12.93;11.53;;;;;;;;;;5075378;28;20535;-57
2023/06/30 03:08:18;;;;;;;15.50;13.30;;;;;;;;;;5075231;28;20542;-58
2023/06/30 03:10:48;;;;;;;15.57;13.20;;;;;;;;;;5075270;28;20502;-57
2023/06/30 03:13:15;;;;;;;16.07;12.13;;;;;;;;;;5075437;28;20986;-57
2023/06/30 03:15:42;;;;;;;17.30;14.63;;;;;;;;;;5075341;28;20443;-58
2023/06/30 03:18:09;;;;;;;15.60;14.00;;;;;;;;;;5075221;28;20546;-58
2023/06/30 03:20:36;;;;;;;16.60;13.90;;;;;;;;;;5075056;28;20488;-57
2023/06/30 03:23:03;;;;;;;16.10;13.43;;;;;;;;;;5073526;28;20509;-58
2023/06/30 03:25:31;;;;;;;15.23;13.43;;;;;;;;;;5075139;28;20502;-57
2023/06/30 03:27:58;;;;;;;15.93;14.30;;;;;;;;;;5074896;28;20531;-58
2023/06/30 03:30:25;;;;;;;15.80;13.60;;;;;;;;;;5074761;28;20486;-57
2023/06/30 03:32:52;;;;;;;15.20;13.20;;;;;;;;;;5074929;28;20530;-58
2023/06/30 03:35:19;;;;;;;19.17;15.53;;;;;;;;;;5074822;28;20539;-57
2023/06/30 03:37:46;;;;;;;18.70;15.00;;;;;;;;;;5074628;28;20484;-58
2023/06/30 03:40:14;;;;;;;17.60;13.70;;;;;;;;;;5074941;28;20487;-58
2023/06/30 03:42:42;;;;;;;17.10;14.80;;;;;;;;;;5074750;28;20558;-58
2023/06/30 03:45:09;;;;;;;16.13;14.43;;;;;;;;;;5074779;28;20850;-58
2023/06/30 03:47:37;;;;;;;15.30;13.60;;;;;;;;;;5074486;28;20483;-58
2023/06/30 03:50:05;;;;;;;16.83;14.27;;;;;;;;;;5074334;28;20484;-57
2023/06/30 03:52:32;;;;;;;16.67;14.93;;;;;;;;;;5074729;28;20510;-58
2023/06/30 03:54:59;;;;;;;20.30;15.87;;;;;;;;;;5074504;28;20480;-58
2023/06/30 03:57:26;;;;;;;16.57;14.80;;;;;;;;;;5074200;28;20479;-58
2023/06/30 03:59:54;;;;;;;16.30;14.57;;;;;;;;;;5074345;28;20558;-57
2023/06/30 04:02:21;;;;;;;16.27;14.10;;;;;;;;;;5074169;28;20498;-57
2023/06/30 04:04:48;;;;;;;17.43;15.50;;;;;;;;;;5074278;28;20452;-57
2023/06/30 04:07:15;;;;;;;15.23;13.67;;;;;;;;;;5074702;28;20519;-57
2023/06/30 04:09:42;;;;;;;18.70;15.30;;;;;;;;;;5074355;28;20581;-57
2023/06/30 04:12:09;;;;;;;16.23;14.53;;;;;;;;;;5074102;28;20448;-57
2023/06/30 04:14:36;;;;;;;16.10;14.17;;;;;;;;;;5074047;28;20451;-57
2023/06/30 04:17:05;;;;;;;16.07;13.97;;;;;;;;;;5074000;28;20852;-57
2023/06/30 04:19:32;;;;;;;19.73;16.63;;;;;;;;;;5074200;28;20868;-57
2023/06/30 04:21:59;;;;;;;15.80;13.00;;;;;;;;;;5074145;28;20444;-57
2023/06/30 04:24:26;;;;;;;16.60;14.40;;;;;;;;;;5074021;28;20479;-57
2023/06/30 04:26:55;;;;;;;17.00;14.83;;;;;;;;;;5073967;28;20497;-57
2023/06/30 04:29:22;;;;;;;18.00;13.63;;;;;;;;;;5073819;28;20480;-57
2023/06/30 04:31:50;;;;;;;17.63;15.63;;;;;;;;;;5073721;28;20451;-58
2023/06/30 04:34:18;;;;;;;15.10;13.50;;;;;;;;;;5073145;28;20448;-58
2023/06/30 04:36:45;;;;;;;15.07;13.57;;;;;;;;;;5073401;28;20451;-58
2023/06/30 04:39:12;;;;;;;16.93;14.13;;;;;;;;;;5073458;28;20859;-57
2023/06/30 04:41:39;;;;;;;17.10;14.53;;;;;;;;;;5073415;28;20884;-56
2023/06/30 04:44:06;;;;;;;17.67;14.77;;;;;;;;;;5073410;28;20914;-57
2023/06/30 04:46:33;;;;;;;17.50;14.13;;;;;;;;;;5073319;28;20862;-57
2023/06/30 04:49:00;;;;;;;18.13;14.37;;;;;;;;;;5073475;28;20880;-57
2023/06/30 04:51:28;;;;;;;18.50;15.87;;;;;;;;;;5073345;28;20455;-57
2023/06/30 04:53:55;;;;;;;15.20;13.60;;;;;;;;;;5073377;28;20497;-57
2023/06/30 04:56:22;;;;;;;15.27;13.70;;;;;;;;;;5073128;28;20566;-57
2023/06/30 04:58:50;;;;;;;14.87;13.40;;;;;;;;;;5073184;28;20448;-57
2023/06/30 05:01:17;;;;;;;17.40;15.13;;;;;;;;;;5073374;28;20600;-57
2023/06/30 05:03:44;;;;;;;14.87;13.40;;;;;;;;;;5073194;28;20539;-57
2023/06/30 05:06:11;;;;;;;16.03;13.23;;;;;;;;;;5072917;28;20534;-57
2023/06/30 05:08:39;;;;;;;16.33;14.43;;;;;;;;;;5073006;28;20542;-57
2023/06/30 05:11:06;;;;;;;17.00;13.40;;;;;;;;;;5072903;28;21021;-57
2023/06/30 05:13:33;;;;;;;17.13;13.63;;;;;;;;;;5072914;28;20539;-57
2023/06/30 05:16:00;;;;;;;15.33;13.30;;;;;;;;;;5073201;28;20472;-58
2023/06/30 05:18:27;;;;;;;13.27;11.97;;;;;;;;;;5073020;28;20538;-57
2023/06/30 05:20:55;;;;;;;19.70;14.87;;;;;;;;;;5072828;28;21011;-57
2023/06/30 05:23:23;;;;;;;17.40;13.93;;;;;;;;;;5072804;28;20542;-57
2023/06/30 05:25:51;;;;;;;16.50;14.23;;;;;;;;;;5072845;28;20463;-57
2023/06/30 05:28:18;;;;;;;14.90;13.47;;;;;;;;;;5073049;28;21010;-57
2023/06/30 05:30:45;;;;;;;15.73;14.03;;;;;;;;;;5072723;28;20538;-57
2023/06/30 05:33:12;;;;;;;17.37;13.87;;;;;;;;;;5072904;28;20476;-58
2023/06/30 05:35:39;;;;;;;15.17;13.57;;;;;;;;;;5072701;28;20447;-58
2023/06/30 05:38:06;;;;;;;15.10;13.47;;;;;;;;;;5072664;28;20501;-57
2023/06/30 05:40:33;;;;;;;14.50;13.10;;;;;;;;;;5072612;28;20457;-57
2023/06/30 05:43:01;;;;;;;15.30;13.20;;;;;;;;;;5072935;28;20829;-58
2023/06/30 05:45:28;;;;;;;19.87;15.20;;;;;;;;;;5073103;28;20459;-57
2023/06/30 05:47:55;;;;;;;22.93;15.03;;;;;;;;;;5076888;28;20547;-57
2023/06/30 05:50:23;;;;;;;18.03;13.50;;;;;;;;;;5076771;28;20885;-57
2023/06/30 05:52:50;;;;;;;14.53;13.13;;;;;;;;;;5076732;28;20530;-56
2023/06/30 05:55:17;;;;;;;18.23;13.97;;;;;;;;;;5076497;28;20455;-56
2023/06/30 05:57:44;;;;;;;16.13;12.37;;;;;;;;;;5076960;28;20458;-57
2023/06/30 06:00:13;;;;;;;15.00;13.23;;;;;;;;;;5076720;28;20550;-57
2023/06/30 06:02:40;;;;;;;17.03;12.80;;;;;;;;;;5076533;28;20538;-57
2023/06/30 06:05:07;;;;;;;16.87;12.70;;;;;;;;;;5076490;28;20546;-57
2023/06/30 06:07:34;;;;;;;15.03;12.87;;;;;;;;;;5076317;28;20530;-56
2023/06/30 06:10:01;;;;;;;20.83;13.80;;;;;;;;;;5076623;28;20553;-58
2023/06/30 06:12:28;;;;;;;15.17;12.83;;;;;;;;;;5076604;28;20931;-57
2023/06/30 06:14:55;;;;;;;14.17;12.43;;;;;;;;;;5076463;28;20452;-57
2023/06/30 06:17:23;;;;;;;21.87;13.67;;;;;;;;;;5076218;28;20501;-57
2023/06/30 06:19:51;;;;;;;15.30;12.40;;;;;;;;;;5076388;28;20873;-57
2023/06/30 06:22:18;;;;;;;18.27;13.10;;;;;;;;;;5076118;28;20451;-57
2023/06/30 06:24:45;;;;;;;14.30;12.03;;;;;;;;;;5076255;28;20530;-57
2023/06/30 06:27:12;;;;;;;16.17;13.50;;;;;;;;;;5076122;28;20487;-57
2023/06/30 06:29:39;;;;;;;16.67;13.10;;;;;;;;;;5076156;28;20562;-57
2023/06/30 06:32:06;;;;;;;14.90;12.67;;;;;;;;;;5076015;28;20538;-57
2023/06/30 06:34:35;;;;;;;17.40;14.30;;;;;;;;;;5075780;28;20483;-57
2023/06/30 06:37:02;;;;;;;16.47;13.07;;;;;;;;;;5075776;28;20492;-57
2023/06/30 06:39:29;;;;;;;13.47;12.07;;;;;;;;;;5075951;28;20530;-57
2023/06/30 06:41:57;;;;;;;18.20;14.73;;;;;;;;;;5075812;28;20447;-57
2023/06/30 06:44:24;;;;;;;20.43;13.83;;;;;;;;;;5075658;28;20478;-57
2023/06/30 06:47:11;;;;;;;21.60;13.20;;;;;;;;;;5075577;28;20542;-57
2023/06/30 06:49:39;;;;;;;17.77;13.63;;;;;;;;;;5075735;28;20570;-57
2023/06/30 06:52:06;;;;;;;14.87;11.40;;;;;;;;;;5075607;28;20555;-57
2023/06/30 06:54:33;;;;;;;14.53;12.87;;;;;;;;;;5075711;28;20490;-57
2023/06/30 06:57:00;;;;;;;15.80;13.47;;;;;;;;;;5075227;28;20566;-57
2023/06/30 06:59:27;;;;;;;18.70;13.90;;;;;;;;;;5075556;28;20517;-57
2023/06/30 07:01:54;;;;;;;16.27;13.70;;;;;;;;;;5075414;28;21014;-58
2023/06/30 07:04:21;;;;;;;15.43;13.13;;;;;;;;;;5075765;28;20487;-57
2023/06/30 07:06:50;;;;;;;17.57;12.63;;;;;;;;;;5075413;28;20542;-57
2023/06/30 07:09:17;;;;;;;15.00;12.27;;;;;;;;;;5075446;28;20547;-57
2023/06/30 07:11:43;;;;;;;15.47;12.80;;;;;;;;;;5077444;28;20973;-56
2023/06/30 07:14:10;;;;;;;14.37;12.80;;;;;;;;;;5094792;28;20538;-58
2023/06/30 07:16:37;;;;;;;20.63;15.00;;;;;;;;;;5095454;28;20545;-58
2023/06/30 07:19:04;;;;;;;20.03;13.33;;;;;;;;;;5095267;28;20546;-58
2023/06/30 07:21:32;;;;;;;13.50;12.10;;;;;;;;;;5095240;28;20490;-57
2023/06/30 07:24:00;;;;;;;12.60;11.33;;;;;;;;;;5095302;28;20451;-58
2023/06/30 07:26:27;;;;;;;16.43;14.40;;;;;;;;;;5095425;28;20573;-57
2023/06/30 07:28:54;;;;;;;14.30;12.17;;;;;;;;;;5095573;28;20482;-58
2023/06/30 07:31:21;;;;;;;19.20;14.17;;;;;;;;;;5095282;28;20570;-57
2023/06/30 07:33:48;;;;;;;18.67;15.77;;;;;;;;;;5095158;28;20455;-57
2023/06/30 07:36:15;;;;;;;14.77;13.13;;;;;;;;;;5095202;28;20447;-56
2023/06/30 07:38:42;;;;;;;14.97;13.43;;;;;;;;;;5094890;28;20546;-58
2023/06/30 07:41:10;;;;;;;15.03;13.57;;;;;;;;;;5094883;28;20534;-58
2023/06/30 07:43:37;;;;;;;14.07;12.50;;;;;;;;;;5094719;28;20534;-58
2023/06/30 07:46:04;;;;;;;15.10;13.17;;;;;;;;;;5095084;28;20542;-58
2023/06/30 07:48:31;;;;;;;14.53;13.00;;;;;;;;;;5094846;28;20451;-58
2023/06/30 07:50:58;;;;;;;14.40;12.90;;;;;;;;;;5082906;28;20579;-58
2023/06/30 07:53:25;;;;;;;15.27;13.13;;;;;;;;;;5074488;28;20541;-56
2023/06/30 07:55:52;;;;;;;16.30;14.40;;;;;;;;;;5074116;28;21073;-58
2023/06/30 07:58:20;;;;;;;18.00;14.37;;;;;;;;;;5074700;28;20531;-58
2023/06/30 08:00:47;;;;;;;18.30;14.70;;;;;;;;;;5074309;28;20547;-58
2023/06/30 08:03:14;;;;;;;18.87;14.50;;;;;;;;;;5074326;28;20476;-57
2023/06/30 08:05:41;;;;;;;15.50;13.33;;;;;;;;;;5074328;28;20857;-61
2023/06/30 08:08:08;;;;;;;15.87;12.60;;;;;;;;;;5073689;28;20488;-57
2023/06/30 08:10:35;;;;;;;15.40;12.50;;;;;;;;;;5073758;28;20566;-56
2023/06/30 08:13:02;;;;;;;12.60;11.30;;;;;;;;;;5074080;28;20484;-58
2023/06/30 08:15:30;;;;;;;16.90;14.03;;;;;;;;;;5080874;28;20538;-57
2023/06/30 08:17:57;;;;;;;13.10;11.67;;;;;;;;;;5094155;28;20541;-57
2023/06/30 08:20:24;;;;;;;16.43;13.47;;;;;;;;;;5094045;28;20478;-57
2023/06/30 08:22:51;;;;;;;15.07;13.03;;;;;;;;;;5094109;28;20541;-58
2023/06/30 08:25:22;;;;;;;15.97;12.00;;;;;;;;;;5093956;28;20542;-58
2023/06/30 08:27:49;;;;;;;17.27;14.07;;;;;;;;;;5094191;28;20451;-57
2023/06/30 08:30:17;;;;;;;16.87;13.20;;;;;;;;;;5093985;28;20477;-57
2023/06/30 08:32:45;;;;;;;14.77;12.67;;;;;;;;;;5093806;28;20447;-57
2023/06/30 08:35:12;;;;;;;17.47;13.20;;;;;;;;;;5093832;28;20630;-57
2023/06/30 08:37:39;;;;;;;17.90;12.97;;;;;;;;;;5093497;28;20542;-57
2023/06/30 08:40:07;;;;;;;12.53;11.20;;;;;;;;;;5093895;28;20457;-57
2023/06/30 08:42:36;;;;;;;13.43;12.00;;;;;;;;;;5093642;28;20839;-57
2023/06/30 08:45:05;;;;;;;12.80;11.50;;;;;;;;;;5093910;28;20546;-57
2023/06/30 08:47:34;;;;;;;19.00;12.80;;;;;;;;;;5093711;28;20526;-57
2023/06/30 08:50:03;;;;;;;13.70;11.63;;;;;;;;;;5093433;28;20443;-56
2023/06/30 08:52:30;;;;;;;14.77;12.37;;;;;;;;;;5093744;28;20447;-57
2023/06/30 08:54:59;;;;;;;13.77;12.30;;;;;;;;;;5093528;28;20520;-57
2023/06/30 08:57:26;;;;;;;13.47;12.17;;;;;;;;;;5093162;28;20981;-57
2023/06/30 08:59:53;;;;;;;15.10;12.60;;;;;;;;;;5093237;28;20560;-57
2023/06/30 09:02:20;;;;;;;14.30;11.93;;;;;;;;;;5093378;28;20490;-57
2023/06/30 09:04:48;;;;;;;12.97;11.60;;;;;;;;;;5093379;28;20545;-57
2023/06/30 09:07:22;;;;;;;13.77;11.77;;;;;;;;;;5093448;28;20462;-57
2023/06/30 09:09:49;;;;;;;12.73;11.43;;;;;;;;;;5093536;28;20542;-57
2023/06/30 09:12:16;;;;;;;14.43;12.93;;;;;;;;;;5093211;28;20521;-57
2023/06/30 09:14:46;;;;;;;14.90;11.70;;;;;;;;;;5093227;28;20892;-57
2023/06/30 09:17:13;;;;;;;15.20;12.03;;;;;;;;;;5093174;28;20537;-57
2023/06/30 09:19:40;;;;;;;14.73;13.33;;;;;;;;;;5093302;28;20478;-58
2023/06/30 09:22:07;;;;;;;13.23;11.93;;;;;;;;;;5092988;28;20462;-59
2023/06/30 09:24:35;;;;;;;13.90;12.30;;;;;;;;;;5093204;28;20511;-57
2023/06/30 09:27:02;;;;;;;15.20;12.67;;;;;;;;;;5093663;28;20475;-57
2023/06/30 09:29:33;;;;;;;15.30;13.80;;;;;;;;;;5093100;28;20538;-57
2023/06/30 09:32:01;;;;;;;14.70;12.90;;;;;;;;;;5092828;28;20501;-57
2023/06/30 09:34:28;;;;;;;14.23;12.70;;;;;;;;;;5093121;28;20458;-57
2023/06/30 09:36:55;;;;;;;16.60;12.90;;;;;;;;;;5092795;28;20539;-57
2023/06/30 09:39:23;;;;;;;20.70;13.60;;;;;;;;;;5092960;28;20578;-57
2023/06/30 09:41:52;;;;;;;18.03;13.50;;;;;;;;;;5092787;28;20538;-58
2023/06/30 09:44:20;;;;;;;22.00;14.00;;;;;;;;;;5092811;28;20474;-57
2023/06/30 09:46:47;;;;;;;17.23;13.47;;;;;;;;;;5092976;28;20806;-57
2023/06/30 09:49:24;;;;;;;14.17;12.67;;;;;;;;;;5092972;28;20835;-58
2023/06/30 09:51:51;;;;;;;14.87;13.17;;;;;;;;;;5092847;28;20509;-58
2023/06/30 09:54:18;;;;;;;15.20;13.70;;;;;;;;;;5092791;28;20550;-58
2023/06/30 09:56:46;;;;;;;19.63;13.17;;;;;;;;;;5092591;28;20941;-57
2023/06/30 09:59:14;;;;;;;15.83;13.60;;;;;;;;;;5092883;28;20454;-58
2023/06/30 10:01:42;;;;;;;17.13;12.60;;;;;;;;;;5092880;28;20487;-58
2023/06/30 10:04:09;;;;;;;13.13;11.73;;;;;;;;;;5092655;28;20451;-57
2023/06/30 10:06:38;;;;;;;14.73;12.87;;;;;;;;;;5092687;28;20459;-57
2023/06/30 10:09:05;;;;;;;15.90;13.10;;;;;;;;;;5092546;28;20443;-58
2023/06/30 10:11:34;;;;;;;15.60;12.47;;;;;;;;;;5092471;28;20485;-58
2023/06/30 10:14:01;;;;;;;16.10;13.23;;;;;;;;;;5092724;28;20538;-57
2023/06/30 10:16:29;;;;;;;14.40;12.83;;;;;;;;;;5092849;28;20537;-57
2023/06/30 10:18:57;;;;;;;16.10;12.90;;;;;;;;;;5092590;28;20451;-58
2023/06/30 10:21:24;;;;;;;13.77;12.27;;;;;;;;;;5092724;28;20487;-57
2023/06/30 10:23:52;;;;;;;14.40;12.90;;;;;;;;;;5092445;28;20545;-57
2023/06/30 10:26:20;;;;;;;14.60;12.23;;;;;;;;;;5092578;28;20881;-58
2023/06/30 10:28:47;;;;;;;14.37;11.47;;;;;;;;;;5092528;28;20447;-58
2023/06/30 10:31:15;;;;;;;15.03;13.10;;;;;;;;;;5092398;28;20561;-57
2023/06/30 10:33:44;;;;;;;12.73;11.43;;;;;;;;;;5096348;28;20504;-56
2023/06/30 10:36:11;;;;;;;14.27;12.77;;;;;;;;;;5096270;28;20541;-58
2023/06/30 10:38:40;;;;;;;18.90;12.47;;;;;;;;;;5096199;28;20505;-57
2023/06/30 10:41:13;;;;;;;14.57;13.07;;;;;;;;;;5096466;28;20490;-58
2023/06/30 10:43:59;;;;;;;14.60;12.40;;;;;;;;;;5096086;28;20991;-58
2023/06/30 10:46:40;;;;;;;15.83;13.03;;;;;;;;;;5095911;28;20538;-57
2023/06/30 10:49:09;;;;;;;14.80;13.20;;;;;;;;;;5095871;28;20465;-57
2023/06/30 10:51:36;;;;;;;15.57;13.23;;;;;;;;;;5095775;28;20573;-57
2023/06/30 10:54:03;;;;;;;17.23;14.87;;;;;;;;;;5095983;28;20889;-57
2023/06/30 10:56:30;;;;;;;19.80;14.60;;;;;;;;;;5095656;28;21050;-57
2023/06/30 10:58:57;;;;;;;20.07;14.10;;;;;;;;;;5095671;28;21025;-57
2023/06/30 11:01:24;;;;;;;17.00;13.83;;;;;;;;;;5093366;28;20451;-57
2023/06/30 11:04:10;;;;;;;18.77;15.00;;;;;;;;;;5095960;28;20533;-58
2023/06/30 11:06:38;;;;;;;17.50;14.00;;;;;;;;;;5095617;28;20545;-57
2023/06/30 11:09:10;;;;;;;18.60;15.17;;;;;;;;;;5095178;28;20546;-57
2023/06/30 11:11:48;;;;;;;16.50;14.90;;;;;;;;;;5095568;28;20565;-58
2023/06/30 11:14:15;;;;;;;21.80;15.30;;;;;;;;;;5095687;28;20508;-58
2023/06/30 11:17:01;;;;;;;19.93;15.40;;;;;;;;;;5095545;28;20450;-58
2023/06/30 11:19:28;;;;;;;19.27;16.00;;;;;;;;;;5095517;28;20526;-57
2023/06/30 11:22:10;;;;;;;19.73;16.23;;;;;;;;;;5095389;28;20542;-57
2023/06/30 11:24:38;;;;;;;20.90;16.77;;;;;;;;;;5094721;28;20546;-57
2023/06/30 11:27:05;;;;;;;20.73;17.57;;;;;;;;;;5095473;28;20905;-57
2023/06/30 11:29:32;;;;;;;20.50;17.80;;;;;;;;;;5095437;28;20862;-57
2023/06/30 11:31:59;;;;;;;20.90;17.07;;;;;;;;;;5095121;28;20962;-57
2023/06/30 11:34:26;;;;;;;24.43;19.07;;;;;;;;;;5094907;28;20519;-57
2023/06/30 11:36:53;;;;;;;21.77;17.90;;;;;;;;;;5094961;28;20534;-57
2023/06/30 11:39:20;;;;;;;20.70;18.50;;;;;;;;;;5095008;28;20878;-57
2023/06/30 11:41:49;;;;;;;22.43;19.30;;;;;;;;;;5095039;28;20528;-57
2023/06/30 11:44:16;;;;;;;22.57;20.03;;;;;;;;;;5093919;28;21002;-56
2023/06/30 11:46:44;;;;;;;23.53;19.63;;;;;;;;;;5094877;28;20534;-58
2023/06/30 11:49:11;;;;;;;22.67;19.03;;;;;;;;;;5094738;28;20451;-56
2023/06/30 11:51:38;;;;;;;22.17;18.50;;;;;;;;;;5094638;28;20499;-57
2023/06/30 11:54:05;;;;;;;20.20;17.30;;;;;;;;;;5094910;28;20554;-56
2023/06/30 11:56:32;;;;;;;23.10;18.20;;;;;;;;;;5094572;28;20559;-56
2023/06/30 11:59:00;;;;;;;22.77;18.73;;;;;;;;;;5094562;28;20443;-57
2023/06/30 12:01:27;;;;;;;22.60;18.30;;;;;;;;;;5094446;28;20612;-57
2023/06/30 12:03:55;;;;;;;21.83;19.30;;;;;;;;;;5094336;28;20542;-57
2023/06/30 12:06:25;;;;;;;20.47;18.27;;;;;;;;;;5094570;28;20534;-55
2023/06/30 12:08:53;;;;;;;21.40;17.17;;;;;;;;;;5094626;28;20442;-56
2023/06/30 12:11:20;;;;;;;22.73;16.50;;;;;;;;;;5094328;28;20882;-56
2023/06/30 12:13:47;;;;;;;27.00;19.10;;;;;;;;;;5094290;28;20529;-55
2023/06/30 12:16:15;;;;;;;24.53;18.83;;;;;;;;;;5094209;28;20492;-55
2023/06/30 12:18:45;;;;;;;21.60;18.23;;;;;;;;;;5094066;28;20538;-55
2023/06/30 12:21:13;;;;;;;22.57;18.37;;;;;;;;;;5093855;28;20451;-57
2023/06/30 12:23:43;;;;;;;20.97;16.33;;;;;;;;;;5094276;28;20534;-57
2023/06/30 12:26:10;;;;;;;20.70;17.53;;;;;;;;;;5094040;28;20538;-56
2023/06/30 12:28:37;;;;;;;21.87;17.93;;;;;;;;;;5093919;28;20631;-56
2023/06/30 12:31:04;;;;;;;19.43;16.20;;;;;;;;;;5093651;28;20447;-56
2023/06/30 12:33:33;;;;;;;20.10;16.43;;;;;;;;;;5094009;28;20482;-56
2023/06/30 12:36:00;;;;;;;18.23;15.20;;;;;;;;;;5093993;28;20451;-58
2023/06/30 12:38:27;;;;;;;21.07;16.60;;;;;;;;;;5093898;28;20541;-57
2023/06/30 12:40:53;;;;;;;21.07;17.47;;;;;;;;;;5093785;28;20534;-57
2023/06/30 12:43:23;;;;;;;21.53;16.50;;;;;;;;;;5093678;28;20510;-57
2023/06/30 12:45:51;;;;;;;18.83;16.07;;;;;;;;;;5093773;28;20439;-56
2023/06/30 12:48:19;;;;;;;20.30;17.30;;;;;;;;;;5093705;28;20530;-56
2023/06/30 12:50:47;;;;;;;20.07;14.63;;;;;;;;;;5093670;28;20443;-56
2023/06/30 12:53:14;;;;;;;19.17;16.07;;;;;;;;;;5093636;28;20514;-56
2023/06/30 12:55:41;;;;;;;22.13;16.77;;;;;;;;;;5093196;28;20562;-57
2023/06/30 12:58:08;;;;;;;21.77;16.10;;;;;;;;;;5093379;28;20501;-56
2023/06/30 13:00:35;;;;;;;18.43;15.97;;;;;;;;;;5093596;28;20538;-56
2023/06/30 13:03:02;;;;;;;19.73;16.70;;;;;;;;;;5093423;28;20546;-56
2023/06/30 13:05:29;;;;;;;17.97;14.73;;;;;;;;;;5093447;28;20446;-56
2023/06/30 13:07:57;;;;;;;19.00;15.53;;;;;;;;;;5093437;28;20541;-57
2023/06/30 13:10:25;;;;;;;20.93;16.63;;;;;;;;;;5093453;28;20542;-56
2023/06/30 13:12:52;;;;;;;17.67;15.63;;;;;;;;;;5093129;28;20483;-56
2023/06/30 13:15:19;;;;;;;21.80;17.03;;;;;;;;;;5093436;28;21038;-57
2023/06/30 13:17:46;;;;;;;27.57;24.73;;;;;;;;;;5093351;28;20537;-57
2023/06/30 13:20:13;;;;;;;19.83;16.70;;;;;;;;;;5093235;28;20962;-57
2023/06/30 13:22:40;;;;;;;18.10;15.80;;;;;;;;;;5093191;28;20538;-56
2023/06/30 13:25:08;;;;;;;16.33;13.40;;;;;;;;;;5092976;28;20477;-57
2023/06/30 13:27:35;;;;;;;10.63;9.63;;;;;;;;;;5093183;28;20541;-57
2023/06/30 13:30:03;;;;;;;8.73;7.90;;;;;;;;;;5093100;28;20954;-57
2023/06/30 13:32:30;;;;;;;8.00;7.30;;;;;;;;;;5092771;28;20481;-56
2023/06/30 13:34:57;;;;;;;7.90;6.90;;;;;;;;;;5092979;28;20534;-57
2023/06/30 13:37:24;;;;;;;6.77;6.07;;;;;;;;;;5093066;28;20534;-57
2023/06/30 13:39:51;;;;;;;6.60;6.00;;;;;;;;;;5092689;28;20541;-56
2023/06/30 13:42:19;;;;;;;7.00;6.30;;;;;;;;;;5093040;28;20453;-58
2023/06/30 13:44:46;;;;;;;6.00;5.50;;;;;;;;;;5092869;28;20482;-57
2023/06/30 13:47:13;;;;;;;6.67;6.07;;;;;;;;;;5092821;28;20542;-57
2023/06/30 13:49:40;;;;;;;5.93;5.43;;;;;;;;;;5092803;28;20530;-56
2023/06/30 13:52:07;;;;;;;6.03;5.53;;;;;;;;;;5092593;28;20576;-56
2023/06/30 13:54:36;;;;;;;8.03;5.60;;;;;;;;;;5092532;28;20447;-55
2023/06/30 13:57:03;;;;;;;5.17;4.77;;;;;;;;;;5092643;28;21069;-56
2023/06/30 13:59:31;;;;;;;5.40;4.30;;;;;;;;;;5092729;28;21005;-56
2023/06/30 14:01:58;;;;;;;4.97;4.47;;;;;;;;;;5092620;28;20473;-56
2023/06/30 14:04:25;;;;;;;5.03;4.50;;;;;;;;;;5092670;28;20447;-57
2023/06/30 14:06:52;;;;;;;4.90;4.50;;;;;;;;;;5093531;28;20451;-56
2023/06/30 14:09:19;;;;;;;5.83;5.20;;;;;;;;;;5096795;28;20541;-56
2023/06/30 14:11:46;;;;;;;5.30;4.87;;;;;;;;;;5096510;28;20533;-55
2023/06/30 14:14:13;;;;;;;5.97;5.20;;;;;;;;;;5096440;28;20810;-57
2023/06/30 14:16:41;;;;;;;5.03;4.53;;;;;;;;;;5096430;28;20549;-57
2023/06/30 14:19:09;;;;;;;5.80;4.60;;;;;;;;;;5096329;28;20447;-57
2023/06/30 14:21:36;;;;;;;5.90;5.17;;;;;;;;;;5096362;28;20533;-54
2023/06/30 14:24:04;;;;;;;5.33;4.83;;;;;;;;;;5096427;28;20451;-56